sensor_id;sensor_type;location;lat;lon;timestamp;P1;durP1;ratioP1;P2;durP2;ratioP2
8474;SDS011;4274;52.012;8.448;2023-05-10T00:01:53;54.03;;;11.20;;
8474;SDS011;4274;52.012;8.448;2023-05-10T00:04:19;56.00;;;11.67;;
8474;SDS011;4274;52.012;8.448;2023-05-10T00:06:45;53.80;;;11.53;;
8474;SDS011;4274;52.012;8.448;2023-05-10T00:09:11;57.30;;;11.40;;
8474;SDS011;4274;52.012;8.448;2023-05-10T00:11:36;55.33;;;12.07;;
8474;SDS011;4274;52.012;8.448;2023-05-10T00:14:02;57.33;;;11.30;;
8474;SDS011;4274;52.012;8.448;2023-05-10T00:16:27;65.90;;;11.67;;
8474;SDS011;4274;52.012;8.448;2023-05-10T00:18:53;53.80;;;11.27;;
8474;SDS011;4274;52.012;8.448;2023-05-10T00:21:19;54.40;;;10.73;;
8474;SDS011;4274;52.012;8.448;2023-05-10T00:23:44;54.53;;;11.37;;
8474;SDS011;4274;52.012;8.448;2023-05-10T00:26:10;53.07;;;10.70;;
8474;SDS011;4274;52.012;8.448;2023-05-10T00:28:35;55.10;;;12.07;;
8474;SDS011;4274;52.012;8.448;2023-05-10T00:31:01;54.30;;;10.73;;
8474;SDS011;4274;52.012;8.448;2023-05-10T00:33:27;58.77;;;11.77;;
8474;SDS011;4274;52.012;8.448;2023-05-10T00:35:52;55.00;;;12.70;;
8474;SDS011;4274;52.012;8.448;2023-05-10T00:38:18;56.83;;;11.87;;
8474;SDS011;4274;52.012;8.448;2023-05-10T00:40:43;54.57;;;11.70;;
8474;SDS011;4274;52.012;8.448;2023-05-10T00:43:09;52.70;;;9.73;;
8474;SDS011;4274;52.012;8.448;2023-05-10T00:45:35;55.50;;;12.20;;
8474;SDS011;4274;52.012;8.448;2023-05-10T00:48:02;52.80;;;10.67;;
8474;SDS011;4274;52.012;8.448;2023-05-10T00:50:28;56.93;;;11.80;;
8474;SDS011;4274;52.012;8.448;2023-05-10T00:52:55;56.20;;;12.33;;
8474;SDS011;4274;52.012;8.448;2023-05-10T00:55:21;55.07;;;11.83;;
8474;SDS011;4274;52.012;8.448;2023-05-10T00:57:47;59.93;;;11.60;;
8474;SDS011;4274;52.012;8.448;2023-05-10T01:00:13;53.70;;;11.13;;
8474;SDS011;4274;52.012;8.448;2023-05-10T01:02:43;55.30;;;12.10;;
8474;SDS011;4274;52.012;8.448;2023-05-10T01:05:11;53.23;;;11.50;;
8474;SDS011;4274;52.012;8.448;2023-05-10T01:07:38;58.37;;;14.13;;
8474;SDS011;4274;52.012;8.448;2023-05-10T01:10:05;57.90;;;11.17;;
8474;SDS011;4274;52.012;8.448;2023-05-10T01:12:32;58.17;;;12.80;;
8474;SDS011;4274;52.012;8.448;2023-05-10T01:15:03;57.13;;;12.80;;
8474;SDS011;4274;52.012;8.448;2023-05-10T01:17:30;57.87;;;13.27;;
8474;SDS011;4274;52.012;8.448;2023-05-10T01:19:57;56.13;;;12.00;;
8474;SDS011;4274;52.012;8.448;2023-05-10T01:30:48;61.27;;;14.57;;
8474;SDS011;4274;52.012;8.448;2023-05-10T01:36:23;56.00;;;13.60;;
8474;SDS011;4274;52.012;8.448;2023-05-10T01:38:53;57.93;;;11.97;;
8474;SDS011;4274;52.012;8.448;2023-05-10T01:41:36;57.67;;;12.63;;
8474;SDS011;4274;52.012;8.448;2023-05-10T01:46:46;52.27;;;10.03;;
8474;SDS011;4274;52.012;8.448;2023-05-10T01:49:21;73.27;;;11.47;;
8474;SDS011;4274;52.012;8.448;2023-05-10T01:51:54;58.50;;;10.80;;
8474;SDS011;4274;52.012;8.448;2023-05-10T01:54:28;54.23;;;10.70;;
8474;SDS011;4274;52.012;8.448;2023-05-10T01:56:55;54.00;;;10.87;;
8474;SDS011;4274;52.012;8.448;2023-05-10T01:59:26;61.33;;;11.60;;
8474;SDS011;4274;52.012;8.448;2023-05-10T02:01:56;53.83;;;10.03;;
8474;SDS011;4274;52.012;8.448;2023-05-10T02:04:24;52.00;;;9.40;;
8474;SDS011;4274;52.012;8.448;2023-05-10T02:06:52;68.07;;;9.83;;
8474;SDS011;4274;52.012;8.448;2023-05-10T02:09:20;50.70;;;8.60;;
8474;SDS011;4274;52.012;8.448;2023-05-10T02:11:46;62.50;;;10.00;;
8474;SDS011;4274;52.012;8.448;2023-05-10T02:14:13;54.90;;;9.20;;
8474;SDS011;4274;52.012;8.448;2023-05-10T02:16:40;53.30;;;10.63;;
8474;SDS011;4274;52.012;8.448;2023-05-10T02:19:07;54.17;;;10.30;;
8474;SDS011;4274;52.012;8.448;2023-05-10T02:21:35;52.40;;;10.60;;
8474;SDS011;4274;52.012;8.448;2023-05-10T02:24:01;54.53;;;10.30;;
8474;SDS011;4274;52.012;8.448;2023-05-10T02:26:29;54.57;;;10.63;;
8474;SDS011;4274;52.012;8.448;2023-05-10T02:28:56;56.17;;;11.70;;
8474;SDS011;4274;52.012;8.448;2023-05-10T02:31:23;61.17;;;11.93;;
8474;SDS011;4274;52.012;8.448;2023-05-10T02:33:49;53.77;;;11.03;;
8474;SDS011;4274;52.012;8.448;2023-05-10T02:36:16;54.10;;;9.83;;
8474;SDS011;4274;52.012;8.448;2023-05-10T02:38:42;61.50;;;11.93;;
8474;SDS011;4274;52.012;8.448;2023-05-10T02:41:09;72.93;;;11.87;;
8474;SDS011;4274;52.012;8.448;2023-05-10T02:43:36;55.43;;;10.47;;
8474;SDS011;4274;52.012;8.448;2023-05-10T02:46:04;54.67;;;11.77;;
8474;SDS011;4274;52.012;8.448;2023-05-10T02:48:30;54.97;;;10.27;;
8474;SDS011;4274;52.012;8.448;2023-05-10T02:50:56;53.17;;;11.20;;
8474;SDS011;4274;52.012;8.448;2023-05-10T02:53:34;57.80;;;11.93;;
8474;SDS011;4274;52.012;8.448;2023-05-10T02:56:12;54.30;;;11.00;;
8474;SDS011;4274;52.012;8.448;2023-05-10T02:58:42;56.80;;;12.13;;
8474;SDS011;4274;52.012;8.448;2023-05-10T03:01:07;57.20;;;12.20;;
8474;SDS011;4274;52.012;8.448;2023-05-10T03:03:33;57.70;;;12.13;;
8474;SDS011;4274;52.012;8.448;2023-05-10T03:05:59;72.03;;;13.37;;
8474;SDS011;4274;52.012;8.448;2023-05-10T03:08:24;58.83;;;12.93;;
8474;SDS011;4274;52.012;8.448;2023-05-10T03:16:36;61.43;;;13.70;;
8474;SDS011;4274;52.012;8.448;2023-05-10T03:19:13;59.70;;;13.90;;
8474;SDS011;4274;52.012;8.448;2023-05-10T03:21:47;57.80;;;12.70;;
8474;SDS011;4274;52.012;8.448;2023-05-10T03:24:16;55.40;;;11.00;;
8474;SDS011;4274;52.012;8.448;2023-05-10T03:26:46;58.53;;;11.00;;
8474;SDS011;4274;52.012;8.448;2023-05-10T03:29:13;57.10;;;10.43;;
8474;SDS011;4274;52.012;8.448;2023-05-10T03:31:39;51.60;;;9.67;;
8474;SDS011;4274;52.012;8.448;2023-05-10T03:34:05;50.17;;;9.17;;
8474;SDS011;4274;52.012;8.448;2023-05-10T03:36:31;51.07;;;8.80;;
8474;SDS011;4274;52.012;8.448;2023-05-10T03:38:57;50.50;;;8.57;;
8474;SDS011;4274;52.012;8.448;2023-05-10T03:41:23;50.47;;;8.17;;
8474;SDS011;4274;52.012;8.448;2023-05-10T03:43:50;51.60;;;7.80;;
8474;SDS011;4274;52.012;8.448;2023-05-10T03:46:15;50.77;;;8.30;;
8474;SDS011;4274;52.012;8.448;2023-05-10T03:48:41;49.33;;;7.53;;
8474;SDS011;4274;52.012;8.448;2023-05-10T03:51:07;48.10;;;7.00;;
8474;SDS011;4274;52.012;8.448;2023-05-10T03:53:32;49.10;;;7.30;;
8474;SDS011;4274;52.012;8.448;2023-05-10T03:55:58;48.63;;;6.50;;
8474;SDS011;4274;52.012;8.448;2023-05-10T03:58:23;44.60;;;4.27;;
8474;SDS011;4274;52.012;8.448;2023-05-10T04:00:49;45.90;;;4.03;;
8474;SDS011;4274;52.012;8.448;2023-05-10T04:03:15;43.47;;;3.70;;
8474;SDS011;4274;52.012;8.448;2023-05-10T04:05:42;43.27;;;3.60;;
8474;SDS011;4274;52.012;8.448;2023-05-10T04:08:07;43.37;;;3.53;;
8474;SDS011;4274;52.012;8.448;2023-05-10T04:10:33;45.60;;;4.07;;
8474;SDS011;4274;52.012;8.448;2023-05-10T04:12:58;44.47;;;3.47;;
8474;SDS011;4274;52.012;8.448;2023-05-10T04:15:24;45.40;;;3.70;;
8474;SDS011;4274;52.012;8.448;2023-05-10T04:17:49;44.47;;;3.70;;
8474;SDS011;4274;52.012;8.448;2023-05-10T04:20:15;45.20;;;3.63;;
8474;SDS011;4274;52.012;8.448;2023-05-10T04:22:41;44.77;;;3.67;;
8474;SDS011;4274;52.012;8.448;2023-05-10T04:25:06;46.63;;;4.70;;
8474;SDS011;4274;52.012;8.448;2023-05-10T04:27:32;44.80;;;4.70;;
8474;SDS011;4274;52.012;8.448;2023-05-10T04:29:58;47.40;;;4.90;;
8474;SDS011;4274;52.012;8.448;2023-05-10T04:32:24;47.20;;;6.13;;
8474;SDS011;4274;52.012;8.448;2023-05-10T04:34:49;46.90;;;6.33;;
8474;SDS011;4274;52.012;8.448;2023-05-10T04:37:16;46.57;;;6.23;;
8474;SDS011;4274;52.012;8.448;2023-05-10T04:39:42;46.40;;;6.00;;
8474;SDS011;4274;52.012;8.448;2023-05-10T04:42:07;50.83;;;6.60;;
8474;SDS011;4274;52.012;8.448;2023-05-10T04:44:33;53.57;;;5.70;;
8474;SDS011;4274;52.012;8.448;2023-05-10T04:46:59;47.27;;;6.40;;
8474;SDS011;4274;52.012;8.448;2023-05-10T04:49:27;47.93;;;5.80;;
8474;SDS011;4274;52.012;8.448;2023-05-10T04:51:52;50.70;;;6.53;;
8474;SDS011;4274;52.012;8.448;2023-05-10T04:54:18;45.77;;;6.03;;
8474;SDS011;4274;52.012;8.448;2023-05-10T04:56:43;47.67;;;6.77;;
8474;SDS011;4274;52.012;8.448;2023-05-10T04:59:09;46.30;;;6.40;;
8474;SDS011;4274;52.012;8.448;2023-05-10T05:01:35;45.97;;;5.70;;
8474;SDS011;4274;52.012;8.448;2023-05-10T05:04:01;47.87;;;6.77;;
8474;SDS011;4274;52.012;8.448;2023-05-10T05:06:26;46.97;;;6.93;;
8474;SDS011;4274;52.012;8.448;2023-05-10T05:08:52;51.87;;;6.90;;
8474;SDS011;4274;52.012;8.448;2023-05-10T05:11:17;47.47;;;6.97;;
8474;SDS011;4274;52.012;8.448;2023-05-10T05:13:43;51.10;;;6.80;;
8474;SDS011;4274;52.012;8.448;2023-05-10T05:16:09;53.00;;;7.90;;
8474;SDS011;4274;52.012;8.448;2023-05-10T05:18:35;50.20;;;7.00;;
8474;SDS011;4274;52.012;8.448;2023-05-10T05:21:01;46.50;;;6.27;;
8474;SDS011;4274;52.012;8.448;2023-05-10T05:23:26;52.90;;;6.40;;
8474;SDS011;4274;52.012;8.448;2023-05-10T05:25:52;49.83;;;5.97;;
8474;SDS011;4274;52.012;8.448;2023-05-10T05:28:19;55.10;;;6.73;;
8474;SDS011;4274;52.012;8.448;2023-05-10T05:30:45;49.53;;;6.57;;
8474;SDS011;4274;52.012;8.448;2023-05-10T05:33:11;47.20;;;6.13;;
8474;SDS011;4274;52.012;8.448;2023-05-10T05:35:38;46.90;;;6.33;;
8474;SDS011;4274;52.012;8.448;2023-05-10T05:38:03;47.40;;;6.00;;
8474;SDS011;4274;52.012;8.448;2023-05-10T05:40:29;46.30;;;5.67;;
8474;SDS011;4274;52.012;8.448;2023-05-10T05:42:55;45.80;;;5.70;;
8474;SDS011;4274;52.012;8.448;2023-05-10T05:45:20;46.67;;;5.90;;
8474;SDS011;4274;52.012;8.448;2023-05-10T05:47:46;45.90;;;5.70;;
8474;SDS011;4274;52.012;8.448;2023-05-10T05:50:12;47.80;;;6.03;;
8474;SDS011;4274;52.012;8.448;2023-05-10T05:52:37;48.50;;;6.10;;
8474;SDS011;4274;52.012;8.448;2023-05-10T05:55:03;45.63;;;5.47;;
8474;SDS011;4274;52.012;8.448;2023-05-10T05:57:29;47.87;;;5.60;;
8474;SDS011;4274;52.012;8.448;2023-05-10T05:59:55;46.93;;;5.97;;
8474;SDS011;4274;52.012;8.448;2023-05-10T06:02:20;46.40;;;5.90;;
8474;SDS011;4274;52.012;8.448;2023-05-10T06:04:46;47.50;;;5.70;;
8474;SDS011;4274;52.012;8.448;2023-05-10T06:07:11;46.63;;;6.13;;
8474;SDS011;4274;52.012;8.448;2023-05-10T06:09:37;47.43;;;5.00;;
8474;SDS011;4274;52.012;8.448;2023-05-10T06:12:03;48.40;;;5.90;;
8474;SDS011;4274;52.012;8.448;2023-05-10T06:14:28;49.07;;;6.43;;
8474;SDS011;4274;52.012;8.448;2023-05-10T06:16:54;52.63;;;5.87;;
8474;SDS011;4274;52.012;8.448;2023-05-10T06:19:20;51.70;;;6.30;;
8474;SDS011;4274;52.012;8.448;2023-05-10T06:21:45;46.00;;;5.40;;
8474;SDS011;4274;52.012;8.448;2023-05-10T06:24:11;48.03;;;5.60;;
8474;SDS011;4274;52.012;8.448;2023-05-10T06:26:36;47.20;;;5.90;;
8474;SDS011;4274;52.012;8.448;2023-05-10T06:29:02;47.60;;;5.37;;
8474;SDS011;4274;52.012;8.448;2023-05-10T06:31:28;48.97;;;6.07;;
8474;SDS011;4274;52.012;8.448;2023-05-10T06:33:53;46.93;;;5.77;;
8474;SDS011;4274;52.012;8.448;2023-05-10T06:36:19;49.97;;;7.03;;
8474;SDS011;4274;52.012;8.448;2023-05-10T06:38:44;45.03;;;5.77;;
8474;SDS011;4274;52.012;8.448;2023-05-10T06:41:10;48.53;;;6.50;;
8474;SDS011;4274;52.012;8.448;2023-05-10T06:43:36;46.87;;;5.20;;
8474;SDS011;4274;52.012;8.448;2023-05-10T06:46:04;45.90;;;6.30;;
8474;SDS011;4274;52.012;8.448;2023-05-10T06:48:30;47.87;;;6.40;;
8474;SDS011;4274;52.012;8.448;2023-05-10T06:50:56;47.03;;;6.27;;
8474;SDS011;4274;52.012;8.448;2023-05-10T06:53:21;48.80;;;6.90;;
8474;SDS011;4274;52.012;8.448;2023-05-10T06:55:48;46.03;;;6.47;;
8474;SDS011;4274;52.012;8.448;2023-05-10T06:58:14;49.10;;;6.87;;
8474;SDS011;4274;52.012;8.448;2023-05-10T07:00:39;49.00;;;6.27;;
8474;SDS011;4274;52.012;8.448;2023-05-10T07:03:09;47.83;;;6.37;;
8474;SDS011;4274;52.012;8.448;2023-05-10T07:05:35;50.13;;;7.23;;
8474;SDS011;4274;52.012;8.448;2023-05-10T07:08:01;49.30;;;7.40;;
8474;SDS011;4274;52.012;8.448;2023-05-10T07:10:26;46.50;;;6.47;;
8474;SDS011;4274;52.012;8.448;2023-05-10T07:12:52;49.63;;;7.97;;
8474;SDS011;4274;52.012;8.448;2023-05-10T07:15:17;50.20;;;8.33;;
8474;SDS011;4274;52.012;8.448;2023-05-10T07:17:43;49.50;;;8.03;;
8474;SDS011;4274;52.012;8.448;2023-05-10T07:20:09;50.30;;;8.40;;
8474;SDS011;4274;52.012;8.448;2023-05-10T07:22:34;53.33;;;9.80;;
8474;SDS011;4274;52.012;8.448;2023-05-10T07:25:00;53.77;;;9.70;;
8474;SDS011;4274;52.012;8.448;2023-05-10T07:27:26;54.93;;;10.17;;
8474;SDS011;4274;52.012;8.448;2023-05-10T07:29:51;51.50;;;9.37;;
8474;SDS011;4274;52.012;8.448;2023-05-10T07:32:17;55.73;;;9.50;;
8474;SDS011;4274;52.012;8.448;2023-05-10T07:34:42;53.83;;;9.77;;
8474;SDS011;4274;52.012;8.448;2023-05-10T07:37:08;53.70;;;9.37;;
8474;SDS011;4274;52.012;8.448;2023-05-10T07:39:33;58.30;;;10.50;;
8474;SDS011;4274;52.012;8.448;2023-05-10T07:41:59;56.40;;;9.87;;
8474;SDS011;4274;52.012;8.448;2023-05-10T07:44:25;52.90;;;8.90;;
8474;SDS011;4274;52.012;8.448;2023-05-10T07:46:50;60.00;;;10.90;;
8474;SDS011;4274;52.012;8.448;2023-05-10T07:49:17;53.40;;;10.23;;
8474;SDS011;4274;52.012;8.448;2023-05-10T07:51:42;56.57;;;11.50;;
8474;SDS011;4274;52.012;8.448;2023-05-10T07:54:08;56.43;;;10.97;;
8474;SDS011;4274;52.012;8.448;2023-05-10T07:56:33;59.00;;;11.37;;
8474;SDS011;4274;52.012;8.448;2023-05-10T07:58:59;63.87;;;12.40;;
8474;SDS011;4274;52.012;8.448;2023-05-10T08:01:29;58.07;;;12.03;;
8474;SDS011;4274;52.012;8.448;2023-05-10T08:03:56;73.57;;;13.10;;
8474;SDS011;4274;52.012;8.448;2023-05-10T08:06:21;62.10;;;12.50;;
8474;SDS011;4274;52.012;8.448;2023-05-10T08:08:47;61.40;;;12.87;;
8474;SDS011;4274;52.012;8.448;2023-05-10T08:11:18;69.97;;;13.20;;
8474;SDS011;4274;52.012;8.448;2023-05-10T08:13:45;70.03;;;15.20;;
8474;SDS011;4274;52.012;8.448;2023-05-10T08:16:11;67.13;;;14.20;;
8474;SDS011;4274;52.012;8.448;2023-05-10T08:18:37;65.53;;;13.70;;
8474;SDS011;4274;52.012;8.448;2023-05-10T08:21:04;62.63;;;13.07;;
8474;SDS011;4274;52.012;8.448;2023-05-10T08:23:29;69.73;;;15.10;;
8474;SDS011;4274;52.012;8.448;2023-05-10T08:25:55;64.30;;;14.40;;
8474;SDS011;4274;52.012;8.448;2023-05-10T08:28:20;62.23;;;14.57;;
8474;SDS011;4274;52.012;8.448;2023-05-10T08:30:46;62.00;;;13.70;;
8474;SDS011;4274;52.012;8.448;2023-05-10T08:33:12;66.40;;;13.10;;
8474;SDS011;4274;52.012;8.448;2023-05-10T08:35:37;67.30;;;15.43;;
8474;SDS011;4274;52.012;8.448;2023-05-10T08:38:03;66.90;;;13.50;;
8474;SDS011;4274;52.012;8.448;2023-05-10T08:40:28;60.73;;;13.00;;
8474;SDS011;4274;52.012;8.448;2023-05-10T08:42:58;62.23;;;12.13;;
8474;SDS011;4274;52.012;8.448;2023-05-10T08:45:32;63.00;;;14.47;;
8474;SDS011;4274;52.012;8.448;2023-05-10T08:48:02;61.23;;;12.90;;
8474;SDS011;4274;52.012;8.448;2023-05-10T08:50:29;60.40;;;12.37;;
8474;SDS011;4274;52.012;8.448;2023-05-10T08:52:57;62.50;;;13.57;;
8474;SDS011;4274;52.012;8.448;2023-05-10T08:55:26;75.80;;;16.17;;
8474;SDS011;4274;52.012;8.448;2023-05-10T08:57:52;68.83;;;15.47;;
8474;SDS011;4274;52.012;8.448;2023-05-10T09:00:18;72.57;;;17.43;;
8474;SDS011;4274;52.012;8.448;2023-05-10T09:02:44;71.20;;;17.10;;
8474;SDS011;4274;52.012;8.448;2023-05-10T09:05:13;75.43;;;16.90;;
8474;SDS011;4274;52.012;8.448;2023-05-10T09:07:40;72.43;;;15.93;;
8474;SDS011;4274;52.012;8.448;2023-05-10T09:10:06;72.47;;;16.90;;
8474;SDS011;4274;52.012;8.448;2023-05-10T09:12:33;72.30;;;17.83;;
8474;SDS011;4274;52.012;8.448;2023-05-10T09:14:59;73.07;;;19.60;;
8474;SDS011;4274;52.012;8.448;2023-05-10T09:17:26;77.50;;;19.30;;
8474;SDS011;4274;52.012;8.448;2023-05-10T09:19:57;78.80;;;19.20;;
8474;SDS011;4274;52.012;8.448;2023-05-10T09:22:27;78.67;;;19.90;;
8474;SDS011;4274;52.012;8.448;2023-05-10T09:25:12;71.33;;;18.30;;
8474;SDS011;4274;52.012;8.448;2023-05-10T09:27:39;72.40;;;20.23;;
8474;SDS011;4274;52.012;8.448;2023-05-10T09:30:06;71.33;;;18.97;;
8474;SDS011;4274;52.012;8.448;2023-05-10T09:32:39;69.73;;;16.47;;
8474;SDS011;4274;52.012;8.448;2023-05-10T09:35:07;71.13;;;18.13;;
8474;SDS011;4274;52.012;8.448;2023-05-10T09:37:33;68.17;;;18.33;;
8474;SDS011;4274;52.012;8.448;2023-05-10T09:39:58;66.10;;;17.23;;
8474;SDS011;4274;52.012;8.448;2023-05-10T09:42:24;67.90;;;15.20;;
8474;SDS011;4274;52.012;8.448;2023-05-10T09:44:50;68.47;;;15.83;;
8474;SDS011;4274;52.012;8.448;2023-05-10T09:47:18;60.70;;;14.10;;
8474;SDS011;4274;52.012;8.448;2023-05-10T09:49:48;63.70;;;15.80;;
8474;SDS011;4274;52.012;8.448;2023-05-10T09:52:15;66.40;;;15.10;;
8474;SDS011;4274;52.012;8.448;2023-05-10T09:54:42;66.10;;;13.70;;
8474;SDS011;4274;52.012;8.448;2023-05-10T09:57:20;63.27;;;13.50;;
8474;SDS011;4274;52.012;8.448;2023-05-10T09:59:47;63.83;;;13.30;;
8474;SDS011;4274;52.012;8.448;2023-05-10T10:02:13;61.10;;;12.67;;
8474;SDS011;4274;52.012;8.448;2023-05-10T10:04:39;57.00;;;13.23;;
8474;SDS011;4274;52.012;8.448;2023-05-10T10:07:06;62.10;;;14.93;;
8474;SDS011;4274;52.012;8.448;2023-05-10T10:09:31;59.70;;;13.40;;
8474;SDS011;4274;52.012;8.448;2023-05-10T10:11:59;63.77;;;14.17;;
8474;SDS011;4274;52.012;8.448;2023-05-10T10:14:25;58.00;;;12.67;;
8474;SDS011;4274;52.012;8.448;2023-05-10T10:16:51;67.43;;;12.13;;
8474;SDS011;4274;52.012;8.448;2023-05-10T10:19:20;57.33;;;11.40;;
8474;SDS011;4274;52.012;8.448;2023-05-10T10:21:47;56.63;;;10.97;;
8474;SDS011;4274;52.012;8.448;2023-05-10T10:24:14;59.30;;;11.03;;
8474;SDS011;4274;52.012;8.448;2023-05-10T10:26:39;58.03;;;10.17;;
8474;SDS011;4274;52.012;8.448;2023-05-10T10:29:10;60.83;;;9.20;;
8474;SDS011;4274;52.012;8.448;2023-05-10T10:34:27;54.60;;;8.87;;
8474;SDS011;4274;52.012;8.448;2023-05-10T10:36:54;54.03;;;8.97;;
8474;SDS011;4274;52.012;8.448;2023-05-10T10:39:21;58.80;;;9.70;;
8474;SDS011;4274;52.012;8.448;2023-05-10T10:41:52;55.30;;;7.57;;
8474;SDS011;4274;52.012;8.448;2023-05-10T10:44:22;62.53;;;7.73;;
8474;SDS011;4274;52.012;8.448;2023-05-10T10:55:17;55.60;;;5.97;;
8474;SDS011;4274;52.012;8.448;2023-05-10T10:57:49;52.77;;;5.50;;
8474;SDS011;4274;52.012;8.448;2023-05-10T11:00:27;51.07;;;6.63;;
8474;SDS011;4274;52.012;8.448;2023-05-10T11:05:40;56.43;;;6.80;;
8474;SDS011;4274;52.012;8.448;2023-05-10T11:10:39;53.77;;;7.13;;
8474;SDS011;4274;52.012;8.448;2023-05-10T11:13:13;55.77;;;8.57;;
8474;SDS011;4274;52.012;8.448;2023-05-10T11:15:39;50.60;;;6.83;;
8474;SDS011;4274;52.012;8.448;2023-05-10T11:18:16;55.97;;;8.77;;
8474;SDS011;4274;52.012;8.448;2023-05-10T11:20:59;56.07;;;8.33;;
8474;SDS011;4274;52.012;8.448;2023-05-10T11:23:31;53.60;;;7.50;;
8474;SDS011;4274;52.012;8.448;2023-05-10T11:25:59;51.50;;;7.50;;
8474;SDS011;4274;52.012;8.448;2023-05-10T11:28:26;58.10;;;8.20;;
8474;SDS011;4274;52.012;8.448;2023-05-10T11:30:53;55.93;;;7.40;;
8474;SDS011;4274;52.012;8.448;2023-05-10T11:33:19;55.27;;;8.37;;
8474;SDS011;4274;52.012;8.448;2023-05-10T11:35:45;59.10;;;7.73;;
8474;SDS011;4274;52.012;8.448;2023-05-10T11:38:11;52.37;;;7.20;;
8474;SDS011;4274;52.012;8.448;2023-05-10T11:40:38;56.33;;;7.03;;
8474;SDS011;4274;52.012;8.448;2023-05-10T11:43:05;51.43;;;6.50;;
8474;SDS011;4274;52.012;8.448;2023-05-10T11:45:34;53.87;;;6.40;;
8474;SDS011;4274;52.012;8.448;2023-05-10T11:48:00;52.53;;;6.20;;
8474;SDS011;4274;52.012;8.448;2023-05-10T11:50:26;53.53;;;6.17;;
8474;SDS011;4274;52.012;8.448;2023-05-10T11:52:53;53.10;;;6.33;;
8474;SDS011;4274;52.012;8.448;2023-05-10T11:55:19;58.03;;;7.47;;
8474;SDS011;4274;52.012;8.448;2023-05-10T11:57:45;53.40;;;7.20;;
8474;SDS011;4274;52.012;8.448;2023-05-10T12:00:11;68.50;;;7.87;;
8474;SDS011;4274;52.012;8.448;2023-05-10T12:02:38;56.43;;;7.70;;
8474;SDS011;4274;52.012;8.448;2023-05-10T12:05:04;58.27;;;9.23;;
8474;SDS011;4274;52.012;8.448;2023-05-10T12:07:31;55.33;;;9.00;;
8474;SDS011;4274;52.012;8.448;2023-05-10T12:12:42;63.20;;;11.80;;
8474;SDS011;4274;52.012;8.448;2023-05-10T12:15:27;57.73;;;10.70;;
8474;SDS011;4274;52.012;8.448;2023-05-10T12:17:53;64.97;;;11.33;;
8474;SDS011;4274;52.012;8.448;2023-05-10T12:20:19;55.67;;;9.67;;
8474;SDS011;4274;52.012;8.448;2023-05-10T12:25:14;58.47;;;10.73;;
8474;SDS011;4274;52.012;8.448;2023-05-10T12:27:40;58.77;;;10.93;;
8474;SDS011;4274;52.012;8.448;2023-05-10T12:30:12;61.00;;;11.73;;
8474;SDS011;4274;52.012;8.448;2023-05-10T12:32:43;63.37;;;11.70;;
8474;SDS011;4274;52.012;8.448;2023-05-10T12:35:09;60.77;;;11.17;;
8474;SDS011;4274;52.012;8.448;2023-05-10T12:37:35;59.00;;;10.97;;
8474;SDS011;4274;52.012;8.448;2023-05-10T12:40:04;62.20;;;12.40;;
8474;SDS011;4274;52.012;8.448;2023-05-10T12:42:31;63.53;;;11.37;;
8474;SDS011;4274;52.012;8.448;2023-05-10T12:44:57;59.87;;;11.57;;
8474;SDS011;4274;52.012;8.448;2023-05-10T12:47:23;61.47;;;12.17;;
8474;SDS011;4274;52.012;8.448;2023-05-10T12:49:48;63.80;;;12.30;;
8474;SDS011;4274;52.012;8.448;2023-05-10T12:52:14;60.67;;;11.27;;
8474;SDS011;4274;52.012;8.448;2023-05-10T12:54:39;64.73;;;11.40;;
8474;SDS011;4274;52.012;8.448;2023-05-10T12:57:05;59.30;;;11.27;;
8474;SDS011;4274;52.012;8.448;2023-05-10T12:59:30;58.53;;;12.00;;
8474;SDS011;4274;52.012;8.448;2023-05-10T13:01:57;63.10;;;11.53;;
8474;SDS011;4274;52.012;8.448;2023-05-10T13:04:22;65.97;;;13.80;;
8474;SDS011;4274;52.012;8.448;2023-05-10T13:06:48;58.50;;;11.47;;
8474;SDS011;4274;52.012;8.448;2023-05-10T13:09:13;60.20;;;11.83;;
8474;SDS011;4274;52.012;8.448;2023-05-10T13:11:40;61.13;;;13.00;;
8474;SDS011;4274;52.012;8.448;2023-05-10T13:14:05;61.70;;;12.27;;
8474;SDS011;4274;52.012;8.448;2023-05-10T13:16:31;63.43;;;13.00;;
8474;SDS011;4274;52.012;8.448;2023-05-10T13:18:57;69.27;;;14.97;;
8474;SDS011;4274;52.012;8.448;2023-05-10T13:21:23;131.97;;;17.40;;
8474;SDS011;4274;52.012;8.448;2023-05-10T13:23:50;96.70;;;13.27;;
8474;SDS011;4274;52.012;8.448;2023-05-10T13:26:15;202.30;;;12.90;;
8474;SDS011;4274;52.012;8.448;2023-05-10T13:28:41;190.27;;;13.47;;
8474;SDS011;4274;52.012;8.448;2023-05-10T13:31:07;155.50;;;15.50;;
8474;SDS011;4274;52.012;8.448;2023-05-10T13:33:32;139.53;;;14.63;;
8474;SDS011;4274;52.012;8.448;2023-05-10T13:35:58;83.13;;;13.20;;
8474;SDS011;4274;52.012;8.448;2023-05-10T13:38:23;67.90;;;13.70;;
8474;SDS011;4274;52.012;8.448;2023-05-10T13:40:49;78.50;;;14.30;;
8474;SDS011;4274;52.012;8.448;2023-05-10T13:43:17;65.90;;;14.80;;
8474;SDS011;4274;52.012;8.448;2023-05-10T13:45:43;69.73;;;15.67;;
8474;SDS011;4274;52.012;8.448;2023-05-10T13:48:09;68.60;;;15.63;;
8474;SDS011;4274;52.012;8.448;2023-05-10T13:50:34;66.47;;;14.50;;
8474;SDS011;4274;52.012;8.448;2023-05-10T13:53:00;64.70;;;14.70;;
8474;SDS011;4274;52.012;8.448;2023-05-10T13:55:25;65.03;;;14.20;;
8474;SDS011;4274;52.012;8.448;2023-05-10T13:57:51;66.50;;;15.40;;
8474;SDS011;4274;52.012;8.448;2023-05-10T14:00:16;63.67;;;14.43;;
8474;SDS011;4274;52.012;8.448;2023-05-10T14:02:42;68.23;;;14.97;;
8474;SDS011;4274;52.012;8.448;2023-05-10T14:05:08;62.67;;;14.70;;
8474;SDS011;4274;52.012;8.448;2023-05-10T14:07:34;72.03;;;15.47;;
8474;SDS011;4274;52.012;8.448;2023-05-10T14:09:59;67.03;;;15.40;;
8474;SDS011;4274;52.012;8.448;2023-05-10T14:12:25;68.50;;;15.03;;
8474;SDS011;4274;52.012;8.448;2023-05-10T14:14:51;67.77;;;16.20;;
8474;SDS011;4274;52.012;8.448;2023-05-10T14:17:17;69.23;;;14.40;;
8474;SDS011;4274;52.012;8.448;2023-05-10T14:19:42;66.37;;;14.50;;
8474;SDS011;4274;52.012;8.448;2023-05-10T14:22:08;71.07;;;15.17;;
8474;SDS011;4274;52.012;8.448;2023-05-10T14:24:34;66.70;;;15.50;;
8474;SDS011;4274;52.012;8.448;2023-05-10T14:26:59;66.20;;;15.57;;
8474;SDS011;4274;52.012;8.448;2023-05-10T14:29:25;66.47;;;15.10;;
8474;SDS011;4274;52.012;8.448;2023-05-10T14:31:51;64.83;;;15.60;;
8474;SDS011;4274;52.012;8.448;2023-05-10T14:34:16;64.97;;;14.50;;
8474;SDS011;4274;52.012;8.448;2023-05-10T14:36:42;66.63;;;15.13;;
8474;SDS011;4274;52.012;8.448;2023-05-10T14:39:07;69.70;;;14.77;;
8474;SDS011;4274;52.012;8.448;2023-05-10T14:41:35;62.83;;;15.57;;
8474;SDS011;4274;52.012;8.448;2023-05-10T14:44:00;64.90;;;14.80;;
8474;SDS011;4274;52.012;8.448;2023-05-10T14:46:28;65.17;;;15.30;;
8474;SDS011;4274;52.012;8.448;2023-05-10T14:48:54;66.47;;;15.90;;
8474;SDS011;4274;52.012;8.448;2023-05-10T14:51:20;65.03;;;14.67;;
8474;SDS011;4274;52.012;8.448;2023-05-10T14:53:47;64.00;;;14.70;;
8474;SDS011;4274;52.012;8.448;2023-05-10T14:56:15;64.37;;;15.00;;
8474;SDS011;4274;52.012;8.448;2023-05-10T14:58:41;63.13;;;14.63;;
8474;SDS011;4274;52.012;8.448;2023-05-10T15:01:07;63.17;;;14.63;;
8474;SDS011;4274;52.012;8.448;2023-05-10T15:03:32;65.17;;;15.90;;
8474;SDS011;4274;52.012;8.448;2023-05-10T15:05:58;61.20;;;13.73;;
8474;SDS011;4274;52.012;8.448;2023-05-10T15:08:23;68.60;;;14.30;;
8474;SDS011;4274;52.012;8.448;2023-05-10T15:10:49;63.67;;;13.40;;
8474;SDS011;4274;52.012;8.448;2023-05-10T15:13:15;66.30;;;15.60;;
8474;SDS011;4274;52.012;8.448;2023-05-10T15:15:41;65.07;;;14.13;;
8474;SDS011;4274;52.012;8.448;2023-05-10T15:18:08;61.43;;;13.90;;
8474;SDS011;4274;52.012;8.448;2023-05-10T15:20:34;70.33;;;16.60;;
8474;SDS011;4274;52.012;8.448;2023-05-10T15:22:59;67.27;;;15.97;;
8474;SDS011;4274;52.012;8.448;2023-05-10T15:25:25;64.97;;;15.07;;
8474;SDS011;4274;52.012;8.448;2023-05-10T15:27:52;62.87;;;14.10;;
8474;SDS011;4274;52.012;8.448;2023-05-10T15:30:18;63.90;;;14.83;;
8474;SDS011;4274;52.012;8.448;2023-05-10T15:32:43;66.07;;;14.10;;